Todos
Avenger Fld Airport (Sweetwater, TX) SWW Condições meteorológicas
|
Sweetwater, TX (KSWW)
Céu Limpo
Vento Ligeiro |
|
25 °C |
There is no TAF data available at SWW or any nearby airports.
Histórico recente de METAR SWW
| Date | Time (CDT) | Flight Rules | Wind Dir. | Speed | Type | Height AGL (ft) | Visibility | Temp (°C) | Temp (°F) | Dew Point (°C) | Dew Point (°F) | Rel. Humid. | Pressure | Density Altitude | Remarks |
|---|---|---|---|---|---|---|---|---|---|---|---|---|---|---|---|
| 07-Mai | 14:55 | VFR | 60° | 6 kt | 10 miles | 25° | 77° | 5° | 41° | 27% | 30.06 in Hg | 3.914 ft | |||
| 07-Mai | 14:15 | VFR | 70° | 7 kt | 10 miles | 24° | 75° | 6° | 42° | 30% | 30.08 in Hg | 3.774 ft | |||
| 07-Mai | 13:55 | VFR | 80° | 3 kt | 10 miles | 23° | 73° | 5° | 41° | 31% | 30.09 in Hg | 3.644 ft | |||
| 07-Mai | 13:35 | VFR | 70° | 6 kt | 10 miles | 23° | 73° | 5° | 41° | 32% | 30.10 in Hg | 3.634 ft | Wind gusting to 14 KT | ||
| 07-Mai | 13:15 | VFR | 80° | 11 kt | 10 miles | 22° | 71° | 5° | 41° | 34% | 30.11 in Hg | 3.504 ft | Wind gusting to 15 KT | ||
| 07-Mai | 12:55 | VFR | 60° | 9 kt | 10 miles | 21° | 69° | 6° | 42° | 36% | 30.11 in Hg | 3.384 ft | |||
| 07-Mai | 12:15 | VFR | 80° | 13 kt | 10 miles | 20° | 68° | 6° | 42° | 40% | 30.14 in Hg | 3.234 ft | |||
| 07-Mai | 11:55 | VFR | 70° | 11 kt | 10 miles | 19° | 66° | 6° | 42° | 42% | 30.14 in Hg | 3.114 ft | |||
| 07-Mai | 11:35 | VFR | 60° | 7 kt | 10 miles | 18° | 64° | 6° | 42° | 45% | 30.16 in Hg | 2.974 ft | |||
| 07-Mai | 11:15 | VFR | 70° | 9 kt | 10 miles | 18° | 64° | 7° | 44° | 49% | 30.16 in Hg | 2.974 ft | Wind gusting to 15 KT | ||
| 07-Mai | 10:55 | VFR | 70° | 9 kt | 10 miles | 17° | 62° | 7° | 44° | 52% | 30.17 in Hg | 2.844 ft | |||
| 07-Mai | 10:35 | VFR | 80° | 6 kt | 10 miles | 15° | 59° | 7° | 44° | 58% | 30.17 in Hg | 2.604 ft | |||
| 07-Mai | 10:15 | VFR | 70° | 10 kt | 10 miles | 15° | 59° | 7° | 44° | 60% | 30.17 in Hg | 2.604 ft | |||
| 07-Mai | 09:55 | VFR | 70° | 9 kt | 10 miles | 14° | 57° | 8° | 46° | 65% | 30.17 in Hg | 2.484 ft | |||
| 07-Mai | 09:15 | VFR | 90° | 6 kt | 10 miles | 12° | 53° | 9° | 48° | 81% | 30.18 in Hg | 2.234 ft | |||
| 07-Mai | 08:55 | VFR | 80° | 8 kt | 10 miles | 11° | 51° | 9° | 48° | 87% | 30.17 in Hg | 2.124 ft | |||
| 07-Mai | 08:15 | VFR | 50° | 4 kt | 10 miles | 10° | 50° | 8° | 46° | 87% | 30.16 in Hg | 2.014 ft | |||
| 07-Mai | 07:55 | VFR | 60° | 5 kt | 10 miles | 9° | 48° | 7° | 44° | 87% | 30.17 in Hg | 1.884 ft | |||
| 07-Mai | 07:15 | VFR | 50° | 4 kt | 10 miles | 9° | 48° | 6° | 42° | 86% | 30.17 in Hg | 1.884 ft | |||
| 07-Mai | 06:55 | VFR | 40° | 5 kt | 10 miles | 9° | 48° | 6° | 42° | 86% | 30.17 in Hg | 1.884 ft | |||
| 07-Mai | 06:15 | VFR | 50° | 6 kt | 10 miles | 9° | 48° | 7° | 44° | 85% | 30.17 in Hg | 1.884 ft | |||
| 07-Mai | 05:55 | VFR | 50° | 6 kt | 10 miles | 9° | 48° | 7° | 44° | 84% | 30.17 in Hg | 1.884 ft | |||
| 07-Mai | 05:15 | VFR | 50° | 6 kt | 10 miles | 10° | 50° | 7° | 44° | 85% | 30.16 in Hg | 2.014 ft | |||
| 07-Mai | 04:55 | VFR | 40° | 7 kt | 10 miles | 10° | 50° | 7° | 44° | 84% | 30.16 in Hg | 2.014 ft |
Entrar
| Seu navegador não suporta. atualize seu navegador |
